Time;durP1;ratioP1;P1;durP2;ratioP2;P2;SDS_P1;SDS_P2;PMS_P1;PMS_P2;Temp;Humidity;BMP_temperature;BMP_pressure;BME280_temperature;BME280_humidity;BME280_pressure;Samples;Min_cycle;Max_cycle;Signal;HPM_P1;HPM_P2
2021/12/05 00:18:40;;;;;;;33.77;17.20;;;;;;;-2.38;76.01;99163.83;1768665;79;20932;-56
2021/12/05 00:24:38;;;;;;;30.87;17.30;;;;;;;-2.43;75.93;99147.19;1769984;79;21356;-56
2021/12/05 00:26:15;;;;;;;40.87;19.47;;;;;;;-2.47;75.81;99146.78;1734564;79;21273;-55
2021/12/05 00:52:35;;;;;;;26.50;16.12;;;;;;;-2.60;75.28;99181.09;1784886;77;21424;-57
2021/12/05 00:57:45;;;;;;;24.83;15.13;;;;;;;-2.72;74.90;99197.83;1781663;79;21078;-57
2021/12/05 01:00:27;;;;;;;24.43;14.27;;;;;;;-2.78;74.99;99192.59;1751596;79;21269;-57
2021/12/05 01:02:47;;;;;;;25.50;14.90;;;;;;;-2.81;75.00;99195.25;1781648;79;22204;-57
2021/12/05 01:15:54;;;;;;;23.43;13.80;;;;;;;-2.90;74.30;99197.92;1753641;79;22400;-57
2021/12/05 01:18:21;;;;;;;22.70;13.27;;;;;;;-2.94;74.24;99197.48;1779573;78;20945;-55
2021/12/05 01:20:54;;;;;;;24.67;14.43;;;;;;;-2.97;74.22;99196.16;1777353;78;20867;-56
2021/12/05 01:23:40;;;;;;;26.33;13.77;;;;;;;-2.99;74.20;99204.09;1773809;79;21752;-56
2021/12/05 01:26:07;;;;;;;27.47;15.07;;;;;;;-3.01;74.23;99195.75;1772405;79;21834;-54
2021/12/05 01:36:32;;;;;;;25.60;13.40;;;;;;;-3.06;74.49;99178.19;1777614;80;20868;-56
2021/12/05 01:41:58;;;;;;;25.90;12.70;;;;;;;-3.06;74.39;99196.62;1771087;79;21189;-55
2021/12/05 01:49:38;;;;;;;26.17;13.93;;;;;;;-3.07;74.15;99195.34;1774281;78;20921;-56
2021/12/05 01:51:58;;;;;;;24.00;12.55;;;;;;;-3.08;74.27;99198.84;1755968;79;20933;-56
2021/12/05 01:56:54;;;;;;;23.70;12.47;;;;;;;-3.09;74.57;99201.92;1730831;79;21392;-56
2021/12/05 02:02:38;;;;;;;26.27;13.27;;;;;;;-3.11;74.78;99181.30;1757031;79;21530;-55
2021/12/05 02:29:31;;;;;;;29.12;14.13;;;;;;;-3.06;75.15;99188.72;1768228;79;21143;-56
2021/12/05 02:39:44;;;;;;;31.27;15.30;;;;;;;-3.05;75.12;99180.39;1769157;79;21048;-57
2021/12/05 02:42:12;;;;;;;31.17;16.23;;;;;;;-3.08;75.03;99176.03;1767162;79;21017;-57
2021/12/05 02:44:37;;;;;;;63.03;23.93;;;;;;;-3.09;75.01;99166.38;1753253;79;21004;-57
2021/12/05 02:47:11;;;;;;;88.53;33.80;;;;;;;-3.10;75.11;99167.69;1764936;79;21118;-57
2021/12/05 02:49:39;;;;;;;66.47;26.53;;;;;;;-3.12;75.18;99157.59;1736054;80;21093;-57
2021/12/05 02:52:10;;;;;;;52.67;22.57;;;;;;;-3.11;75.20;99158.03;1789699;77;21064;-57
2021/12/05 02:54:42;;;;;;;58.83;25.37;;;;;;;-3.14;75.11;99162.86;1798263;79;21041;-57
2021/12/05 02:57:09;;;;;;;58.17;24.83;;;;;;;-3.14;75.06;99160.23;1766610;80;20943;-57
2021/12/05 03:02:09;;;;;;;47.47;20.00;;;;;;;-3.14;75.08;99147.50;1771024;78;22255;-57
2021/12/05 03:04:37;;;;;;;42.97;20.90;;;;;;;-3.13;75.02;99144.88;1777479;78;21372;-57
2021/12/05 03:07:07;;;;;;;47.37;21.43;;;;;;;-3.14;74.95;99144.44;1777247;78;21015;-56
2021/12/05 03:09:32;;;;;;;34.53;17.17;;;;;;;-3.15;74.84;99136.56;1775402;79;20914;-57
2021/12/05 03:12:00;;;;;;;43.87;19.77;;;;;;;-3.17;74.76;99136.56;1770487;80;21413;-57
2021/12/05 03:14:26;;;;;;;51.53;22.27;;;;;;;-3.18;74.71;99129.98;1797358;77;21040;-57
2021/12/05 03:16:53;;;;;;;60.67;25.50;;;;;;;-3.21;74.67;99134.81;1779887;78;21097;-57
2021/12/05 03:19:20;;;;;;;52.47;21.47;;;;;;;-3.24;74.67;99121.69;1766487;79;21127;-57
2021/12/05 03:21:48;;;;;;;40.67;19.37;;;;;;;-3.24;74.58;99128.27;1792986;79;20989;-57
2021/12/05 03:24:16;;;;;;;39.97;17.23;;;;;;;-3.27;74.59;99115.09;1779549;78;21071;-57
2021/12/05 03:26:45;;;;;;;32.23;15.87;;;;;;;-3.27;74.75;99113.78;1779722;78;21313;-57
2021/12/05 03:29:13;;;;;;;23.70;13.03;;;;;;;-3.27;74.89;99111.59;1778510;79;20947;-57
2021/12/05 03:31:40;;;;;;;24.43;12.13;;;;;;;-3.28;75.03;99109.39;1784630;79;21421;-58
2021/12/05 03:34:09;;;;;;;18.80;11.10;;;;;;;-3.28;75.17;99110.71;1785082;78;21058;-57
2021/12/05 03:36:38;;;;;;;17.40;11.27;;;;;;;-3.26;75.33;99117.30;1749164;79;21061;-57
2021/12/05 03:39:06;;;;;;;20.23;11.63;;;;;;;-3.26;75.54;99115.54;1778112;79;20847;-57
2021/12/05 03:41:32;;;;;;;17.13;10.40;;;;;;;-3.24;75.80;99111.59;1784528;79;20941;-57
2021/12/05 03:43:59;;;;;;;20.47;11.57;;;;;;;-3.21;76.05;99112.88;1782736;79;21488;-57
2021/12/05 03:46:26;;;;;;;16.17;10.47;;;;;;;-3.17;76.21;99111.56;1784784;78;21520;-57
2021/12/05 03:48:57;;;;;;;18.40;11.37;;;;;;;-3.15;76.36;99108.92;1783201;79;21521;-57
2021/12/05 03:51:26;;;;;;;20.53;11.73;;;;;;;-3.14;76.52;99107.58;1772436;79;20945;-57
2021/12/05 03:53:53;;;;;;;17.30;11.43;;;;;;;-3.14;76.65;99110.21;1754711;81;21423;-57
2021/12/05 03:56:20;;;;;;;20.27;11.80;;;;;;;-3.11;76.79;99106.70;1749863;81;22007;-57
2021/12/05 03:58:47;;;;;;;19.27;10.27;;;;;;;-3.09;76.92;99108.45;1753612;80;21867;-57
2021/12/05 04:01:14;;;;;;;21.20;8.97;;;;;;;-3.06;77.03;99107.11;1745441;81;21893;-57
2021/12/05 04:03:43;;;;;;;16.00;9.27;;;;;;;-3.05;77.06;99106.23;1745197;79;21080;-57
2021/12/05 04:06:11;;;;;;;21.37;10.13;;;;;;;-3.02;77.21;99111.93;1747752;79;21001;-56
2021/12/05 04:08:42;;;;;;;18.43;9.60;;;;;;;-3.02;77.18;99110.61;1748212;79;20914;-57
2021/12/05 04:11:14;;;;;;;19.50;10.23;;;;;;;-3.02;77.18;99115.88;1750361;80;20966;-57
2021/12/05 04:13:42;;;;;;;18.37;11.20;;;;;;;-3.00;77.24;99119.83;1749594;79;22140;-57
2021/12/05 04:16:09;;;;;;;22.27;9.93;;;;;;;-2.98;77.24;99124.66;1747563;79;21013;-57
2021/12/05 04:18:36;;;;;;;24.90;12.83;;;;;;;-3.01;77.16;99121.59;1749840;80;21017;-57
2021/12/05 04:21:03;;;;;;;29.17;15.73;;;;;;;-3.01;77.11;99125.53;1750223;79;21318;-57
2021/12/05 04:23:29;;;;;;;28.50;14.90;;;;;;;-3.02;76.88;99130.36;1746639;79;21261;-57
2021/12/05 04:25:56;;;;;;;24.50;15.40;;;;;;;-3.02;76.61;99132.12;1755185;81;21516;-57
2021/12/05 04:28:22;;;;;;;26.87;15.63;;;;;;;-3.08;76.29;99133.91;1751880;79;21048;-57
2021/12/05 04:30:50;;;;;;;31.07;16.57;;;;;;;-3.12;76.24;99143.12;1748428;81;21108;-57
2021/12/05 04:33:18;;;;;;;33.60;16.30;;;;;;;-3.15;76.09;99137.41;1746825;79;21017;-57
2021/12/05 04:35:45;;;;;;;34.47;18.10;;;;;;;-3.19;75.74;99144.02;1754399;80;20949;-57
2021/12/05 04:38:11;;;;;;;31.27;16.33;;;;;;;-3.24;75.59;99132.65;1751776;81;21388;-57
2021/12/05 04:40:40;;;;;;;28.50;14.93;;;;;;;-3.27;75.54;99136.59;1745774;81;21088;-57
2021/12/05 04:43:07;;;;;;;27.97;15.40;;;;;;;-3.31;75.54;99147.55;1747865;81;20949;-57
2021/12/05 04:45:35;;;;;;;31.07;16.83;;;;;;;-3.32;75.44;99149.78;1751189;81;21005;-57
2021/12/05 04:48:04;;;;;;;35.50;17.93;;;;;;;-3.32;75.34;99148.91;1747234;80;21060;-57
2021/12/05 04:50:31;;;;;;;38.87;17.70;;;;;;;-3.33;75.16;99159.86;1720719;80;21550;-57
2021/12/05 04:52:58;;;;;;;28.40;16.07;;;;;;;-3.38;74.96;99152.84;1748561;79;21236;-57
2021/12/05 04:55:24;;;;;;;34.17;17.67;;;;;;;-3.41;74.98;99145.85;1747494;79;21339;-57
2021/12/05 04:57:52;;;;;;;30.30;15.63;;;;;;;-3.43;74.83;99150.23;1715962;79;21055;-57
2021/12/05 05:00:27;;;;;;;28.10;17.47;;;;;;;-3.46;74.75;99161.63;1750743;79;21376;-57
2021/12/05 05:02:54;;;;;;;34.73;16.57;;;;;;;-3.47;74.64;99154.61;1745819;79;21113;-57
2021/12/05 05:05:21;;;;;;;30.23;16.50;;;;;;;-3.50;74.57;99152.45;1742169;79;21128;-57
2021/12/05 05:07:48;;;;;;;28.37;16.23;;;;;;;-3.50;74.59;99169.55;1745234;79;21066;-57
2021/12/05 05:10:18;;;;;;;30.23;15.70;;;;;;;-3.52;74.43;99169.98;1752572;79;21037;-57
2021/12/05 05:12:45;;;;;;;29.43;17.07;;;;;;;-3.55;74.19;99169.53;1746028;79;21047;-56
2021/12/05 05:15:12;;;;;;;27.83;15.97;;;;;;;-3.62;74.01;99172.17;1751607;79;21902;-56
2021/12/05 05:17:39;;;;;;;31.23;15.50;;;;;;;-3.68;74.06;99177.02;1722791;81;20983;-57
2021/12/05 05:20:36;;;;;;;29.50;16.40;;;;;;;-3.69;74.09;99179.64;1753025;79;21333;-57
2021/12/05 05:28:35;;;;;;;22.90;14.00;;;;;;;-3.77;73.79;99157.73;1743720;81;21107;-57
2021/12/05 05:51:37;;;;;;;22.57;12.30;;;;;;;-3.82;73.69;99157.72;1757197;79;20918;-57
2021/12/05 05:54:04;;;;;;;35.77;15.70;;;;;;;-3.80;73.71;99158.59;1776719;79;21567;-57
2021/12/05 05:56:33;;;;;;;33.53;16.20;;;;;;;-3.78;73.69;99162.55;1775947;79;20918;-57
2021/12/05 05:59:07;;;;;;;37.83;17.47;;;;;;;-3.77;73.54;99166.94;1775972;79;21907;-57
2021/12/05 06:04:05;;;;;;;22.80;11.10;;;;;;;-3.75;73.68;99175.27;1780335;78;20984;-56
2021/12/05 06:06:32;;;;;;;19.67;10.30;;;;;;;-3.74;73.80;99170.89;1772380;79;21892;-56
2021/12/05 06:09:01;;;;;;;16.67;9.07;;;;;;;-3.71;74.01;99165.17;1778168;79;20973;-57
2021/12/05 06:11:28;;;;;;;17.03;9.67;;;;;;;-3.68;74.19;99169.13;1779380;78;20981;-56
2021/12/05 06:13:55;;;;;;;13.40;9.03;;;;;;;-3.64;74.35;99162.97;1775125;78;20997;-57
2021/12/05 06:16:21;;;;;;;11.77;7.03;;;;;;;-3.62;74.58;99157.70;1774087;79;20942;-57
2021/12/05 06:18:47;;;;;;;13.10;6.83;;;;;;;-3.57;74.76;99168.66;1776810;79;20911;-58
2021/12/05 06:21:14;;;;;;;15.87;8.77;;;;;;;-3.53;74.94;99164.28;1777653;79;21953;-58
2021/12/05 06:23:40;;;;;;;13.93;8.37;;;;;;;-3.49;75.12;99166.88;1776026;79;20913;-57
2021/12/05 06:26:09;;;;;;;15.17;7.90;;;;;;;-3.46;75.25;99172.59;1780759;79;22457;-58
2021/12/05 06:28:41;;;;;;;15.87;8.40;;;;;;;-3.42;75.43;99175.67;1779013;78;20910;-56
2021/12/05 06:31:49;;;;;;;13.70;7.40;;;;;;;-3.37;75.55;99173.02;1773775;78;21091;-58
2021/12/05 06:39:41;;;;;;;11.40;7.20;;;;;;;-3.23;75.78;99180.47;1779263;78;20899;-57
2021/12/05 06:47:13;;;;;;;15.48;7.12;;;;;;;-3.09;75.99;99190.07;1779314;79;20964;-57
2021/12/05 06:49:40;;;;;;;14.80;8.37;;;;;;;-3.03;76.05;99195.75;1778081;79;20902;-58
2021/12/05 06:52:07;;;;;;;12.80;7.07;;;;;;;-2.97;76.12;99194.84;1769587;79;21025;-56
2021/12/05 06:54:35;;;;;;;15.30;7.80;;;;;;;-2.90;76.14;99203.19;1767378;80;20918;-57
2021/12/05 06:57:03;;;;;;;11.63;7.07;;;;;;;-2.87;76.14;99207.98;1765131;80;21111;-57
2021/12/05 06:59:29;;;;;;;15.03;7.90;;;;;;;-2.80;76.16;99211.47;1768234;80;20866;-57
2021/12/05 07:01:55;;;;;;;17.83;8.40;;;;;;;-2.74;76.19;99211.03;1767736;80;20951;-57
2021/12/05 07:07:22;;;;;;;12.50;7.53;;;;;;;-2.58;76.08;99210.52;1787180;78;26751;-54
2021/12/05 07:09:47;;;;;;;13.03;6.87;;;;;;;-2.57;76.10;99215.34;1730260;81;20973;-55
2021/12/05 07:15:02;;;;;;;14.80;7.00;;;;;;;-2.50;76.08;99203.89;1736679;81;21279;-55
2021/12/05 07:20:08;;;;;;;15.10;7.70;;;;;;;-2.36;76.16;99202.05;1704213;81;21058;-55
2021/12/05 07:22:38;;;;;;;13.43;8.30;;;;;;;-2.29;76.16;99203.77;1708052;83;21050;-55
2021/12/05 07:25:08;;;;;;;12.93;7.40;;;;;;;-2.23;76.14;99195.84;1703262;83;22121;-55
2021/12/05 07:41:54;;;;;;;13.53;8.67;;;;;;;-1.80;76.08;99205.66;1692739;82;20198;-55
2021/12/05 07:43:50;;;;;;;18.07;8.98;;;;;;;-1.80;76.08;99205.66;1677907;83;21622;-55
2021/12/05 07:46:16;;;;;;;13.37;8.80;;;;;;;-1.71;76.05;99212.19;1692428;82;21392;-55
2021/12/05 07:48:45;;;;;;;19.40;9.47;;;;;;;-1.66;76.02;99214.34;1688260;84;21520;-53
2021/12/05 07:53:58;;;;;;;16.87;9.98;;;;;;;-1.52;75.96;99221.69;1694781;82;21045;-54
2021/12/05 07:56:33;;;;;;;16.60;9.97;;;;;;;-1.44;75.84;99221.61;1693127;83;21502;-54
2021/12/05 07:59:10;;;;;;;13.43;8.57;;;;;;;-1.38;75.76;99216.75;1691252;83;20953;-54
2021/12/05 08:15:17;;;;;;;;;;;;;;;-0.96;74.87;99236.59;1727060;82;21004;-52
2021/12/05 08:17:49;;;;;;;13.20;8.03;;;;;;;-0.91;74.69;99230.80;1723591;81;20530;-52
2021/12/05 08:20:11;;;;;;;17.30;8.47;;;;;;;-0.88;74.37;99232.97;1720455;81;20931;-53
2021/12/05 08:22:39;;;;;;;11.97;8.37;;;;;;;-0.81;74.28;99233.77;1718599;82;21788;-53
2021/12/05 08:25:12;;;;;;;12.90;8.00;;;;;;;-0.75;74.16;99220.48;1652920;85;20896;-53
2021/12/05 08:27:41;;;;;;;13.37;7.13;;;;;;;-0.67;73.79;99221.71;1718878;82;21031;-54
2021/12/05 08:30:11;;;;;;;15.70;9.00;;;;;;;-0.61;73.67;99215.05;1717780;81;22112;-54
2021/12/05 08:32:53;;;;;;;13.33;8.10;;;;;;;-0.54;73.49;99213.63;1715572;81;21140;-54
2021/12/05 08:35:40;;;;;;;13.70;8.20;;;;;;;-0.46;73.28;99213.54;1711940;82;21466;-54
2021/12/05 09:24:00;;;;;;;15.23;10.23;;;;;;;0.58;69.75;99197.00;1743907;80;21030;-54
2021/12/05 09:26:20;;;;;;;18.37;11.23;;;;;;;0.64;69.60;99195.11;1734593;81;20918;-54
2021/12/05 09:29:06;;;;;;;21.97;12.67;;;;;;;0.69;69.19;99186.63;1737530;81;20879;-53
2021/12/05 09:39:56;;;;;;;;;;;;;;;0.94;67.73;99182.20;1736543;81;21070;-53
2021/12/05 10:01:23;;;;;;;14.00;8.77;;;;;;;1.10;65.63;99187.66;1732694;81;20406;-53
2021/12/05 10:01:55;;;;;;;17.30;10.70;;;;;;;1.13;64.99;99196.41;1743311;81;20783;-53
2021/12/05 10:06:48;;;;;;;13.83;7.67;;;;;;;1.16;64.94;99194.61;1737756;80;20447;-54
2021/12/05 10:09:43;;;;;;;17.82;9.55;;;;;;;1.16;64.62;99198.14;1682393;83;20930;-54
2021/12/05 10:14:45;;;;;;;15.60;9.27;;;;;;;1.21;64.00;99201.56;1741517;80;20961;-53
2021/12/05 10:17:22;;;;;;;22.67;12.13;;;;;;;1.23;63.66;99209.48;1734276;81;22680;-53
2021/12/05 10:36:06;;;;;;;15.40;8.18;;;;;;;1.37;62.63;99222.89;1734964;80;21519;-56
2021/12/05 10:38:32;;;;;;;11.60;7.77;;;;;;;1.40;62.18;99218.86;1736194;80;21724;-56
2021/12/05 10:43:42;;;;;;;14.43;9.23;;;;;;;1.43;61.75;99212.19;1735060;80;21527;-56
2021/12/05 10:46:15;;;;;;;13.43;8.33;;;;;;;1.44;61.32;99208.63;1738828;81;21580;-56
2021/12/05 10:48:46;;;;;;;10.23;7.07;;;;;;;1.42;61.07;99209.11;1743264;81;20922;-55
2021/12/05 10:51:17;;;;;;;15.83;8.33;;;;;;;1.41;60.68;99214.44;1740769;81;21041;-55
2021/12/05 10:53:53;;;;;;;14.17;8.50;;;;;;;1.40;60.70;99209.58;1738865;80;21292;-56
2021/12/05 10:56:33;;;;;;;14.37;8.77;;;;;;;1.40;60.93;99209.58;1737985;80;21128;-56
2021/12/05 10:59:16;;;;;;;14.20;8.60;;;;;;;1.43;60.94;99206.00;1740005;80;21061;-55
2021/12/05 11:01:56;;;;;;;12.40;7.63;;;;;;;1.46;60.97;99203.27;1717911;80;21034;-55
2021/12/05 11:04:32;;;;;;;17.87;9.97;;;;;;;1.48;60.76;99190.41;1678697;83;21084;-56
2021/12/05 11:07:01;;;;;;;14.17;8.73;;;;;;;1.46;60.32;99190.88;1737055;81;21322;-56
2021/12/05 11:09:37;;;;;;;14.07;8.80;;;;;;;1.47;60.29;99181.16;1739754;80;21149;-56
2021/12/05 11:12:28;;;;;;;15.40;9.27;;;;;;;1.47;60.21;99186.45;1735938;80;21115;-56
2021/12/05 11:14:57;;;;;;;11.97;8.13;;;;;;;1.47;59.87;99182.03;1736378;81;21508;-55
2021/12/05 11:17:28;;;;;;;13.73;8.20;;;;;;;1.47;59.74;99181.16;1739816;80;20989;-55
2021/12/05 11:20:14;;;;;;;13.27;8.03;;;;;;;1.47;59.77;99173.20;1700526;83;21070;-55
2021/12/05 11:22:46;;;;;;;10.97;7.60;;;;;;;1.47;59.72;99170.54;1722828;81;21103;-54
2021/12/05 11:25:19;;;;;;;10.83;8.27;;;;;;;1.43;59.30;99167.55;1740086;81;21456;-55
2021/12/05 11:27:57;;;;;;;11.30;7.37;;;;;;;1.42;59.05;99172.43;1738251;80;21507;-53
2021/12/05 11:30:31;;;;;;;11.23;7.23;;;;;;;1.39;58.64;99169.83;1734597;81;21136;-52
2021/12/05 11:33:01;;;;;;;12.37;8.43;;;;;;;1.39;58.73;99177.78;1734063;81;21072;-53
2021/12/05 11:35:43;;;;;;;11.40;8.17;;;;;;;1.38;58.88;99176.03;1737285;80;21518;-53
2021/12/05 11:38:26;;;;;;;15.77;9.00;;;;;;;1.36;58.74;99187.99;1737489;81;21120;-52
2021/12/05 11:41:11;;;;;;;10.30;7.40;;;;;;;1.35;58.67;99182.30;1676912;83;21125;-55
2021/12/05 11:43:48;;;;;;;18.33;9.13;;;;;;;1.32;58.63;99181.02;1741303;80;21164;-55
2021/12/05 11:46:31;;;;;;;14.40;9.13;;;;;;;1.29;58.84;99170.47;1739566;80;21089;-55
2021/12/05 11:49:08;;;;;;;16.70;9.03;;;;;;;1.27;58.87;99176.28;1676141;83;21161;-55
2021/12/05 11:51:48;;;;;;;13.53;8.23;;;;;;;1.25;59.00;99167.92;1736803;81;21449;-55
2021/12/05 11:54:27;;;;;;;17.33;10.23;;;;;;;1.22;59.10;99164.87;1741554;81;20958;-56
2021/12/05 11:57:00;;;;;;;14.83;9.07;;;;;;;1.21;59.39;99164.45;1739088;80;21962;-57
2021/12/05 11:59:42;;;;;;;15.67;11.27;;;;;;;1.21;59.56;99168.42;1738030;80;20966;-57
2021/12/05 12:02:28;;;;;;;16.67;10.17;;;;;;;1.22;59.91;99170.63;1740576;80;21113;-57
2021/12/05 12:05:17;;;;;;;13.87;9.50;;;;;;;1.21;60.36;99173.72;1738519;80;21042;-56
2021/12/05 12:07:52;;;;;;;17.33;11.07;;;;;;;1.22;60.79;99177.25;1741299;80;20974;-57
2021/12/05 12:10:26;;;;;;;14.70;9.97;;;;;;;1.21;61.04;99182.12;1740961;81;20924;-57
2021/12/05 12:13:12;;;;;;;16.00;9.78;;;;;;;1.19;61.16;99187.48;1742907;81;21382;-57
2021/12/05 12:15:42;;;;;;;17.00;10.43;;;;;;;1.16;61.32;99184.88;1739697;80;21124;-55
2021/12/05 12:18:18;;;;;;;15.70;10.53;;;;;;;1.12;61.19;99188.48;1742987;81;20872;-55
2021/12/05 12:20:43;;;;;;;16.60;10.03;;;;;;;1.08;61.38;99188.13;1741700;81;21008;-54
2021/12/05 12:23:10;;;;;;;15.63;10.50;;;;;;;1.01;61.66;99179.44;1742198;80;20986;-54
2021/12/05 12:25:39;;;;;;;17.00;10.47;;;;;;;0.99;61.85;99183.88;1743857;81;20986;-54
2021/12/05 12:28:06;;;;;;;24.97;13.73;;;;;;;0.94;62.06;99181.75;1740842;81;21767;-57
2021/12/05 12:30:37;;;;;;;19.13;11.70;;;;;;;0.90;62.31;99188.47;1742577;80;21057;-55
2021/12/05 12:33:13;;;;;;;23.53;14.33;;;;;;;0.87;62.53;99188.07;1743508;80;21005;-54
2021/12/05 12:35:40;;;;;;;25.70;15.50;;;;;;;0.84;62.72;99188.59;1741240;80;20924;-55
2021/12/05 12:38:17;;;;;;;28.60;14.87;;;;;;;0.80;62.83;99192.19;1740230;81;20913;-55
2021/12/05 12:40:51;;;;;;;26.50;14.33;;;;;;;0.75;63.05;99185.21;1744770;80;21304;-54
2021/12/05 12:43:55;;;;;;;24.93;14.83;;;;;;;0.72;63.27;99188.35;1743846;80;20963;-55
2021/12/05 12:46:48;;;;;;;26.77;14.07;;;;;;;0.70;63.51;99183.52;1738896;80;21439;-55
2021/12/05 12:49:21;;;;;;;23.33;14.53;;;;;;;0.67;63.66;99190.22;1742748;81;21046;-55
2021/12/05 12:52:11;;;;;;;22.63;13.93;;;;;;;0.65;63.87;99195.54;1742376;81;20962;-56
2021/12/05 12:54:48;;;;;;;28.37;14.40;;;;;;;0.63;64.03;99189.84;1742970;80;21477;-55
2021/12/05 12:57:22;;;;;;;26.77;14.70;;;;;;;0.59;64.08;99186.38;1740802;81;20951;-56
2021/12/05 12:59:59;;;;;;;27.07;15.30;;;;;;;0.57;64.05;99200.09;1741170;81;22078;-55
2021/12/05 13:02:56;;;;;;;22.90;13.03;;;;;;;0.54;64.12;99205.88;1741078;81;21017;-54
2021/12/05 13:05:22;;;;;;;25.43;14.30;;;;;;;0.50;64.47;99198.91;1735555;81;21105;-55
2021/12/05 13:10:39;;;;;;;24.23;14.38;;;;;;;0.42;64.90;99205.66;1748533;81;20906;-55
2021/12/05 13:13:23;;;;;;;27.53;14.87;;;;;;;0.36;65.06;99205.73;1751528;80;20934;-55
2021/12/05 13:15:53;;;;;;;27.63;15.57;;;;;;;0.33;65.06;99209.77;1749495;81;20909;-55
2021/12/05 13:18:25;;;;;;;25.20;14.40;;;;;;;0.26;65.13;99214.26;1745095;81;20895;-55
2021/12/05 13:21:05;;;;;;;22.90;14.20;;;;;;;0.21;65.16;99216.11;1744720;81;21065;-54
2021/12/05 13:23:50;;;;;;;27.90;15.63;;;;;;;0.14;65.29;99215.78;1746767;80;21451;-55
2021/12/05 13:26:38;;;;;;;26.10;15.83;;;;;;;0.08;65.36;99212.36;1706418;83;21159;-55
2021/12/05 13:29:17;;;;;;;28.77;17.73;;;;;;;0.03;65.47;99212.41;1674190;83;21757;-55
2021/12/05 13:31:48;;;;;;;31.63;17.40;;;;;;;-0.03;65.66;99210.74;1680610;83;21079;-54
2021/12/05 13:34:31;;;;;;;40.83;18.90;;;;;;;-0.06;65.78;99209.45;1675790;85;21151;-54
2021/12/05 13:37:13;;;;;;;30.87;16.77;;;;;;;-0.10;65.90;99218.34;1692515;83;20978;-55
2021/12/05 13:39:56;;;;;;;30.17;17.57;;;;;;;-0.14;66.10;99213.10;1704986;82;21493;-55
2021/12/05 13:42:52;;;;;;;28.53;17.53;;;;;;;-0.21;66.28;99221.58;1677184;84;21357;-54
2021/12/05 13:45:22;;;;;;;27.10;16.63;;;;;;;-0.25;66.55;99218.53;1671238;83;21096;-53
2021/12/05 13:47:58;;;;;;;27.27;16.90;;;;;;;-0.30;66.88;99216.41;1674118;85;22794;-54
2021/12/05 13:50:28;;;;;;;23.90;14.80;;;;;;;-0.36;67.05;99217.82;1689799;82;22430;-54
2021/12/05 13:53:05;;;;;;;28.27;15.87;;;;;;;-0.42;67.18;99214.78;1693016;83;21432;-54
2021/12/05 13:56:02;;;;;;;25.93;15.43;;;;;;;-0.47;67.37;99215.30;1692717;84;20981;-54
2021/12/05 13:58:40;;;;;;;31.27;18.03;;;;;;;-0.54;67.52;99215.41;1710116;82;21057;-54
2021/12/05 14:01:30;;;;;;;40.20;20.27;;;;;;;-0.57;67.76;99228.64;1709935;83;21411;-54
2021/12/05 14:04:23;;;;;;;32.43;18.47;;;;;;;-0.63;67.94;99228.73;1678797;84;20939;-53
2021/12/05 14:07:04;;;;;;;33.97;18.20;;;;;;;-0.65;68.12;99229.19;1676939;83;21099;-54
2021/12/05 14:09:46;;;;;;;38.17;20.30;;;;;;;-0.68;68.38;99238.02;1671562;83;21253;-54
2021/12/05 14:12:18;;;;;;;30.63;16.70;;;;;;;-0.71;68.58;99236.75;1673174;83;21014;-54
2021/12/05 14:14:53;;;;;;;28.77;17.53;;;;;;;-0.72;68.76;99250.85;1737008;82;22175;-54
2021/12/05 14:17:26;;;;;;;32.30;17.90;;;;;;;-0.78;68.93;99251.80;1736781;80;21119;-54
2021/12/05 14:20:03;;;;;;;34.03;18.57;;;;;;;-0.83;69.13;99248.31;1739661;82;21484;-54
2021/12/05 14:22:31;;;;;;;33.67;17.60;;;;;;;-0.87;69.32;99258.50;1739576;82;20989;-54
2021/12/05 14:25:02;;;;;;;32.87;17.93;;;;;;;-0.90;69.55;99257.65;1737254;81;21079;-54
2021/12/05 14:27:34;;;;;;;32.23;18.67;;;;;;;-0.93;69.77;99259.86;1735977;80;21841;-54
2021/12/05 14:30:00;;;;;;;31.30;19.50;;;;;;;-0.95;70.00;99260.35;1730910;81;22305;-54
2021/12/05 14:32:30;;;;;;;37.80;21.10;;;;;;;-0.97;70.20;99255.52;1734995;82;22249;-54
2021/12/05 14:35:03;;;;;;;37.67;20.97;;;;;;;-0.98;70.40;99255.09;1732912;82;21150;-55
2021/12/05 14:37:33;;;;;;;40.40;21.20;;;;;;;-0.98;70.57;99259.05;1733351;80;21112;-54
2021/12/05 14:40:03;;;;;;;35.50;21.37;;;;;;;-0.99;70.75;99259.94;1736753;81;22662;-54
2021/12/05 14:42:31;;;;;;;41.53;19.87;;;;;;;-1.00;70.93;99262.14;1741052;82;20927;-54
2021/12/05 14:45:00;;;;;;;33.53;18.27;;;;;;;-1.00;71.07;99262.14;1735420;82;21073;-54
2021/12/05 14:47:30;;;;;;;34.47;17.77;;;;;;;-1.01;71.19;99270.08;1735829;80;21067;-54
2021/12/05 14:50:10;;;;;;;32.53;17.70;;;;;;;-1.01;71.40;99270.08;1737167;81;21078;-54
2021/12/05 14:52:40;;;;;;;39.57;20.53;;;;;;;-1.03;71.45;99279.36;1705914;82;21049;-53
2021/12/05 14:55:10;;;;;;;34.77;19.83;;;;;;;-1.05;71.55;99285.09;1711941;82;21113;-57
2021/12/05 14:57:45;;;;;;;31.80;18.63;;;;;;;-1.07;71.73;99293.92;1741253;82;21487;-58
2021/12/05 15:00:21;;;;;;;34.63;18.17;;;;;;;-1.08;71.86;99298.32;1741218;82;20923;-56
2021/12/05 15:02:47;;;;;;;34.43;18.03;;;;;;;-1.08;71.93;99303.61;1735156;82;21272;-56
2021/12/05 15:05:16;;;;;;;26.97;15.70;;;;;;;-1.08;72.03;99304.92;1736920;80;21602;-55
2021/12/05 15:07:44;;;;;;;34.13;17.63;;;;;;;-1.09;72.01;99317.70;1736944;82;20979;-56
2021/12/05 15:10:11;;;;;;;27.63;15.50;;;;;;;-1.12;71.91;99312.46;1680367;83;21075;-56
2021/12/05 15:12:37;;;;;;;27.50;15.17;;;;;;;-1.15;71.83;99319.95;1723520;81;20923;-55
2021/12/05 15:15:10;;;;;;;30.67;16.67;;;;;;;-1.23;71.83;99319.14;1724906;81;20914;-56
2021/12/05 15:17:39;;;;;;;29.47;16.50;;;;;;;-1.28;71.88;99326.23;1725826;82;21399;-56
2021/12/05 15:20:10;;;;;;;29.47;16.47;;;;;;;-1.33;71.98;99329.34;1723414;82;20906;-57
2021/12/05 15:22:37;;;;;;;30.13;15.67;;;;;;;-1.36;72.07;99328.03;1720021;82;20971;-56
2021/12/05 15:25:09;;;;;;;28.43;15.10;;;;;;;-1.38;72.13;99328.95;1722138;81;20904;-56
2021/12/05 15:27:35;;;;;;;24.93;14.17;;;;;;;-1.41;72.25;99337.76;1726193;82;20931;-57
2021/12/05 15:30:09;;;;;;;24.43;12.87;;;;;;;-1.42;72.34;99334.69;1721930;82;21066;-56
2021/12/05 15:32:36;;;;;;;26.40;13.43;;;;;;;-1.43;72.42;99336.00;1721984;81;20904;-57
2021/12/05 15:35:09;;;;;;;22.07;12.83;;;;;;;-1.44;72.49;99335.12;1723597;81;20927;-57
2021/12/05 15:37:35;;;;;;;23.20;13.83;;;;;;;-1.44;72.54;99336.89;1720923;81;20931;-57
2021/12/05 15:40:03;;;;;;;27.83;14.57;;;;;;;-1.44;72.60;99325.02;1719952;82;20975;-57
2021/12/05 15:42:34;;;;;;;25.27;13.87;;;;;;;-1.43;72.67;99327.64;1720738;82;21093;-54
2021/12/05 15:45:04;;;;;;;24.10;13.00;;;;;;;-1.40;72.73;99318.84;1718630;82;20908;-55
2021/12/05 15:47:32;;;;;;;20.90;13.13;;;;;;;-1.40;72.78;99314.44;1720554;81;20900;-55
2021/12/05 15:50:20;;;;;;;23.53;13.67;;;;;;;-1.43;72.80;99306.97;1723148;82;20919;-56
2021/12/05 15:52:54;;;;;;;23.00;13.50;;;;;;;-1.46;72.96;99307.02;1680462;84;20983;-55
2021/12/05 15:55:35;;;;;;;27.02;13.98;;;;;;;-1.46;73.09;99300.41;1720989;81;21080;-56
2021/12/05 15:58:20;;;;;;;22.33;12.67;;;;;;;-1.48;73.16;99302.18;1703600;82;21004;-56
2021/12/05 16:00:54;;;;;;;27.43;14.83;;;;;;;-1.52;73.22;99290.75;1701783;82;21061;-55
2021/12/05 16:03:26;;;;;;;30.87;14.77;;;;;;;-1.56;73.37;99293.88;1691867;82;21514;-55
2021/12/05 16:05:58;;;;;;;33.07;15.70;;;;;;;-1.56;73.46;99295.64;1678521;83;21377;-56
2021/12/05 16:08:28;;;;;;;27.97;14.23;;;;;;;-1.58;73.53;99298.28;1723070;81;21107;-55
2021/12/05 16:10:58;;;;;;;29.70;15.60;;;;;;;-1.57;73.62;99285.97;1719329;81;20974;-56
2021/12/05 16:13:29;;;;;;;29.07;15.43;;;;;;;-1.56;73.70;99289.92;1717257;81;21381;-56
2021/12/05 16:16:06;;;;;;;29.97;15.93;;;;;;;-1.56;73.82;99286.40;1717170;81;21175;-55
2021/12/05 16:18:35;;;;;;;31.70;16.77;;;;;;;-1.55;73.82;99280.23;1692514;81;21353;-56
2021/12/05 16:21:05;;;;;;;29.80;15.30;;;;;;;-1.58;73.91;99275.84;1720887;81;21087;-56
2021/12/05 16:23:31;;;;;;;33.40;16.30;;;;;;;-1.57;73.95;99280.24;1719540;81;21349;-56
2021/12/05 16:26:22;;;;;;;33.23;18.03;;;;;;;-1.59;74.05;99285.09;1718850;81;21141;-56
2021/12/05 16:28:53;;;;;;;32.47;15.87;;;;;;;-1.60;74.15;99278.94;1697615;81;20985;-56
2021/12/05 16:31:24;;;;;;;29.63;15.97;;;;;;;-1.61;74.19;99280.26;1720561;81;20926;-56
2021/12/05 16:33:58;;;;;;;28.67;16.97;;;;;;;-1.64;74.30;99286.45;1721182;81;21208;-56